Time;durP1;ratioP1;P1;durP2;ratioP2;P2;SDS_P1;SDS_P2;PMS_P1;PMS_P2;Temp;Humidity;BMP_temperature;BMP_pressure;BME280_temperature;BME280_humidity;BME280_pressure;Samples;Min_cycle;Max_cycle;Signal;HPM_P1;HPM_P2
2024/02/29 00:00:08;;;;;;;33.97;31.03;;;8.50;26.90;;;;;;4911212;29;20450;-78
2024/02/29 00:02:33;;;;;;;34.33;31.43;;;8.50;26.40;;;;;;4892730;29;20204;-79
2024/02/29 00:04:59;;;;;;;34.47;31.53;;;8.40;26.70;;;;;;4890838;29;20520;-79
2024/02/29 00:07:24;;;;;;;33.23;30.60;;;8.40;26.60;;;;;;4878035;29;20214;-79
2024/02/29 00:09:50;;;;;;;34.50;31.53;;;8.30;26.80;;;;;;4890362;29;20643;-79
2024/02/29 00:12:15;;;;;;;33.63;30.60;;;8.50;26.60;;;;;;4903824;29;20185;-79
2024/02/29 00:14:42;;;;;;;34.10;31.10;;;8.50;26.50;;;;;;4892704;29;20272;-78
2024/02/29 00:17:07;;;;;;;33.63;30.67;;;8.50;26.50;;;;;;4903613;29;20201;-79
2024/02/29 00:19:33;;;;;;;34.10;31.30;;;8.60;26.40;;;;;;4882019;29;20446;-79
2024/02/29 00:21:59;;;;;;;34.67;31.70;;;8.50;26.40;;;;;;4892188;29;20182;-80
2024/02/29 00:24:24;;;;;;;35.37;32.37;;;8.70;26.30;;;;;;4909136;29;20661;-78
2024/02/29 00:26:50;;;;;;;35.20;32.13;;;8.80;26.10;;;;;;4901530;29;20201;-79
2024/02/29 00:29:15;;;;;;;34.23;31.23;;;9.10;25.60;;;;;;4890880;29;20189;-78
2024/02/29 00:31:44;;;;;;;36.03;32.17;;;9.20;24.90;;;;;;4907585;29;20221;-78
2024/02/29 00:34:11;;;;;;;35.13;32.20;;;9.30;24.20;;;;;;4908121;29;20211;-80
2024/02/29 00:36:37;;;;;;;35.10;32.07;;;9.00;24.80;;;;;;4883159;29;20433;-79
2024/02/29 00:39:03;;;;;;;34.73;31.57;;;8.90;25.00;;;;;;4906899;29;20421;-80
2024/02/29 00:41:29;;;;;;;35.33;32.03;;;8.80;26.30;;;;;;4890860;29;20555;-80
2024/02/29 00:43:54;;;;;;;37.63;34.40;;;8.60;25.90;;;;;;4891517;29;20430;-78
2024/02/29 00:46:20;;;;;;;36.67;33.50;;;8.40;26.20;;;;;;4908131;29;20185;-79
2024/02/29 00:48:45;;;;;;;36.53;33.47;;;8.30;26.90;;;;;;4907977;29;20217;-78
2024/02/29 00:51:11;;;;;;;36.50;33.40;;;8.30;27.00;;;;;;4908444;29;20173;-79
2024/02/29 00:53:36;;;;;;;36.37;33.37;;;8.30;26.90;;;;;;4908295;29;20192;-79
2024/02/29 00:56:02;;;;;;;36.00;33.00;;;8.30;26.70;;;;;;4908920;29;20185;-79
2024/02/29 00:58:27;;;;;;;36.30;32.83;;;8.20;26.70;;;;;;4908005;29;20483;-79
2024/02/29 01:00:54;;;;;;;36.97;33.67;;;8.10;27.40;;;;;;4899976;29;20213;-79
2024/02/29 01:03:19;;;;;;;37.07;34.03;;;8.00;27.30;;;;;;4908076;29;20213;-80
2024/02/29 01:05:45;;;;;;;37.40;34.10;;;8.10;27.30;;;;;;4899600;29;20490;-79
2024/02/29 01:08:11;;;;;;;36.50;33.30;;;8.00;27.30;;;;;;4907667;29;20589;-78
2024/02/29 01:10:36;;;;;;;38.17;35.13;;;7.90;27.60;;;;;;4908154;29;20209;-79
2024/02/29 01:13:01;;;;;;;38.13;34.77;;;7.80;27.80;;;;;;4908423;29;20193;-78
2024/02/29 01:15:27;;;;;;;37.77;34.40;;;7.70;28.50;;;;;;4890989;29;20201;-78
2024/02/29 01:17:53;;;;;;;37.83;34.43;;;7.70;28.50;;;;;;4891334;29;20202;-79
2024/02/29 01:20:18;;;;;;;36.80;33.73;;;7.70;28.50;;;;;;4891914;29;20226;-79
2024/02/29 01:22:44;;;;;;;35.37;32.17;;;7.60;28.70;;;;;;4900229;29;20204;-82
2024/02/29 01:25:11;;;;;;;38.07;34.87;;;7.70;28.20;;;;;;4901355;29;20215;-78
2024/02/29 01:27:36;;;;;;;38.50;35.10;;;7.80;28.30;;;;;;4900266;29;20209;-80
2024/02/29 01:30:02;;;;;;;37.80;34.60;;;7.80;28.00;;;;;;4917681;29;20437;-80
2024/02/29 01:32:28;;;;;;;38.27;34.97;;;7.80;27.90;;;;;;4901156;29;20192;-79
2024/02/29 01:34:53;;;;;;;36.53;33.13;;;7.80;28.30;;;;;;4900279;29;20548;-78
2024/02/29 01:37:19;;;;;;;34.33;31.63;;;7.80;28.00;;;;;;4911065;29;20239;-80
2024/02/29 01:39:44;;;;;;;37.33;34.13;;;7.80;28.40;;;;;;4893441;29;20210;-80
2024/02/29 01:42:11;;;;;;;37.33;34.23;;;7.80;28.40;;;;;;4887974;29;20209;-80
2024/02/29 01:44:53;;;;;;;37.27;33.90;;;7.90;28.20;;;;;;4909585;29;20180;-80
2024/02/29 01:47:19;;;;;;;39.73;35.90;;;8.00;28.10;;;;;;4893006;29;20486;-79
2024/02/29 01:49:47;;;;;;;37.30;34.13;;;8.10;27.70;;;;;;4908886;29;20922;-79
2024/02/29 01:52:15;;;;;;;37.70;34.30;;;8.10;27.30;;;;;;4908670;29;20177;-79
2024/02/29 01:54:41;;;;;;;37.17;34.07;;;8.20;27.40;;;;;;4892564;29;20468;-80
2024/02/29 01:57:08;;;;;;;38.33;35.07;;;8.30;27.10;;;;;;4892609;29;20453;-80
2024/02/29 01:59:35;;;;;;;35.80;32.70;;;8.30;26.80;;;;;;4908779;29;20426;-80
2024/02/29 02:02:01;;;;;;;36.33;33.17;;;8.40;26.80;;;;;;4868578;29;20431;-80
2024/02/29 02:04:26;;;;;;;36.77;33.60;;;8.40;26.50;;;;;;4886767;29;20438;-80
2024/02/29 02:06:52;;;;;;;39.90;36.50;;;8.50;26.40;;;;;;4884933;29;20244;-78
2024/02/29 02:09:18;;;;;;;38.23;34.93;;;8.50;26.20;;;;;;4892667;29;20185;-78
2024/02/29 02:11:44;;;;;;;36.60;33.37;;;8.50;25.90;;;;;;4891439;29;20436;-79
2024/02/29 02:14:09;;;;;;;37.83;34.70;;;8.40;26.10;;;;;;4892920;29;20225;-78
2024/02/29 02:16:35;;;;;;;39.83;36.33;;;8.20;26.30;;;;;;4908639;29;20181;-79
2024/02/29 02:19:00;;;;;;;38.87;35.57;;;8.20;26.20;;;;;;4890583;29;20650;-79
2024/02/29 02:21:26;;;;;;;39.87;36.40;;;8.10;26.20;;;;;;4875856;29;20182;-80
2024/02/29 02:23:51;;;;;;;40.00;36.33;;;7.80;27.30;;;;;;4879326;29;20272;-79
2024/02/29 02:26:17;;;;;;;37.90;34.60;;;7.60;27.80;;;;;;4885544;29;20190;-79
2024/02/29 02:28:42;;;;;;;37.10;33.87;;;7.60;28.00;;;;;;4877038;29;20255;-78
2024/02/29 02:31:07;;;;;;;38.70;35.43;;;7.60;28.20;;;;;;4887595;29;20241;-77
2024/02/29 02:33:33;;;;;;;38.57;35.30;;;7.60;28.30;;;;;;4878168;29;20177;-78
2024/02/29 02:35:59;;;;;;;37.77;34.33;;;7.70;28.10;;;;;;4895570;29;20182;-79
2024/02/29 02:38:24;;;;;;;38.77;35.40;;;7.80;27.70;;;;;;4887388;29;20288;-79
2024/02/29 02:40:50;;;;;;;39.33;35.87;;;7.70;27.70;;;;;;4903523;29;20190;-78
2024/02/29 02:43:15;;;;;;;38.90;35.43;;;7.80;27.60;;;;;;4875277;29;20178;-78
2024/02/29 02:45:41;;;;;;;38.10;34.63;;;7.70;27.60;;;;;;4882990;29;20218;-78
2024/02/29 02:48:06;;;;;;;37.83;34.47;;;7.70;27.90;;;;;;4901364;29;20261;-78
2024/02/29 02:50:32;;;;;;;35.23;32.43;;;7.60;28.10;;;;;;4900601;29;20185;-78
2024/02/29 02:52:57;;;;;;;37.17;33.93;;;7.70;28.20;;;;;;4909303;29;20584;-77
2024/02/29 02:55:23;;;;;;;36.13;33.10;;;7.80;27.80;;;;;;4902929;29;20201;-79
2024/02/29 02:57:48;;;;;;;36.87;33.73;;;7.80;26.90;;;;;;4899635;29;20215;-78
2024/02/29 03:00:14;;;;;;;37.10;33.90;;;7.80;27.40;;;;;;4900905;29;20252;-78
2024/02/29 03:02:40;;;;;;;36.80;33.57;;;7.80;27.30;;;;;;4899307;29;20178;-78
2024/02/29 03:05:06;;;;;;;35.63;32.70;;;7.60;27.20;;;;;;4908653;29;20531;-78
2024/02/29 03:07:32;;;;;;;38.53;35.33;;;7.70;27.50;;;;;;4919241;23;20231;-83
2024/02/29 03:09:58;;;;;;;37.07;34.13;;;7.70;27.00;;;;;;4937661;29;20448;-83
2024/02/29 03:12:23;;;;;;;39.37;35.83;;;7.80;26.80;;;;;;4933828;29;20470;-80
2024/02/29 03:14:49;;;;;;;38.40;35.07;;;7.80;26.90;;;;;;4942655;29;20471;-80
2024/02/29 03:17:15;;;;;;;36.60;33.50;;;7.70;27.00;;;;;;4939671;29;20212;-83
2024/02/29 03:19:40;;;;;;;38.17;34.87;;;7.70;27.20;;;;;;4928540;29;20560;-83
2024/02/29 03:22:06;;;;;;;37.83;34.43;;;7.70;27.10;;;;;;4924597;29;20193;-83
2024/02/29 03:24:32;;;;;;;38.47;35.20;;;7.60;27.10;;;;;;4913101;29;20194;-83
2024/02/29 03:26:57;;;;;;;38.07;34.70;;;7.60;27.10;;;;;;4914478;29;20222;-83
2024/02/29 03:29:23;;;;;;;36.17;33.03;;;7.70;27.30;;;;;;4915320;29;20206;-83
2024/02/29 03:31:49;;;;;;;38.53;35.00;;;7.80;26.40;;;;;;4914272;29;20213;-83
2024/02/29 03:34:15;;;;;;;39.80;36.10;;;7.60;26.70;;;;;;4909112;29;20208;-83
2024/02/29 03:36:41;;;;;;;39.03;35.63;;;7.50;27.20;;;;;;4901991;29;20442;-83
2024/02/29 03:39:07;;;;;;;36.10;33.00;;;7.40;27.30;;;;;;4902772;29;20220;-83
2024/02/29 03:41:32;;;;;;;39.17;35.80;;;7.30;27.30;;;;;;4902381;29;20316;-83
2024/02/29 03:43:58;;;;;;;39.20;35.90;;;7.30;27.50;;;;;;4902323;29;20494;-83
2024/02/29 03:46:24;;;;;;;38.97;35.70;;;7.20;27.90;;;;;;4908696;29;20196;-83
2024/02/29 03:48:50;;;;;;;37.70;34.40;;;7.20;28.00;;;;;;4921281;29;20964;-83
2024/02/29 03:51:16;;;;;;;38.73;35.43;;;7.30;28.10;;;;;;4920180;29;20513;-83
2024/02/29 03:53:42;;;;;;;35.43;32.73;;;7.60;27.30;;;;;;4913131;29;20220;-83
2024/02/29 03:56:08;;;;;;;35.87;32.63;;;7.70;26.50;;;;;;4920343;29;20437;-82
2024/02/29 03:58:33;;;;;;;36.77;33.60;;;7.90;26.00;;;;;;4921504;29;20461;-80
2024/02/29 04:00:59;;;;;;;36.53;33.23;;;8.20;25.70;;;;;;4918846;29;20188;-81
2024/02/29 04:03:24;;;;;;;35.70;32.60;;;8.30;25.00;;;;;;4920738;29;20188;-82
2024/02/29 04:05:50;;;;;;;35.27;32.27;;;8.40;24.50;;;;;;4920534;29;20197;-81
2024/02/29 04:08:15;;;;;;;36.60;33.40;;;8.50;24.00;;;;;;4922764;29;20224;-81
2024/02/29 04:10:44;;;;;;;36.67;33.40;;;8.60;23.70;;;;;;4910149;29;20226;-81
2024/02/29 04:13:10;;;;;;;36.70;33.23;;;8.70;23.50;;;;;;4906240;29;20204;-81
2024/02/29 04:15:36;;;;;;;36.10;33.10;;;8.70;23.20;;;;;;4905635;29;20482;-81
2024/02/29 04:18:03;;;;;;;34.60;31.70;;;8.80;23.20;;;;;;4919919;29;20285;-81
2024/02/29 04:20:29;;;;;;;36.03;33.13;;;8.90;22.90;;;;;;4901491;29;20202;-81
2024/02/29 04:22:54;;;;;;;36.07;33.07;;;8.90;22.60;;;;;;4901648;29;20786;-82
2024/02/29 04:25:22;;;;;;;35.43;32.33;;;9.00;22.50;;;;;;4901453;29;20193;-82
2024/02/29 04:27:51;;;;;;;36.70;33.63;;;9.10;22.00;;;;;;4901232;29;20276;-82
2024/02/29 04:30:18;;;;;;;37.30;34.17;;;8.70;22.20;;;;;;4907830;29;20437;-82
2024/02/29 04:32:44;;;;;;;36.30;33.03;;;8.40;23.50;;;;;;4900591;29;20992;-82
2024/02/29 04:35:09;;;;;;;37.40;34.07;;;8.30;23.40;;;;;;4900239;29;20466;-81
2024/02/29 04:37:36;;;;;;;37.07;33.97;;;8.30;23.60;;;;;;4901325;29;20476;-82
2024/02/29 04:40:03;;;;;;;34.50;31.70;;;8.40;23.40;;;;;;4899900;29;20185;-81
2024/02/29 04:42:29;;;;;;;36.33;33.23;;;8.60;23.00;;;;;;4907274;29;20519;-82
2024/02/29 04:44:55;;;;;;;36.07;33.17;;;8.70;23.10;;;;;;4917962;29;21007;-82
2024/02/29 04:47:20;;;;;;;35.47;32.30;;;8.70;22.70;;;;;;4910690;29;20539;-82
2024/02/29 04:49:46;;;;;;;35.57;32.57;;;8.90;22.50;;;;;;4910327;29;20185;-81
2024/02/29 04:52:11;;;;;;;36.40;33.43;;;9.00;22.20;;;;;;4917276;29;20189;-81
2024/02/29 04:54:37;;;;;;;32.47;29.77;;;8.90;22.00;;;;;;4920205;29;20220;-82
2024/02/29 04:57:03;;;;;;;35.27;32.27;;;8.90;22.30;;;;;;4906585;29;20787;-82
2024/02/29 04:59:28;;;;;;;37.10;33.90;;;9.00;22.00;;;;;;4913602;29;20194;-81
2024/02/29 05:01:54;;;;;;;37.13;33.73;;;9.10;21.80;;;;;;4900272;29;20201;-81
2024/02/29 05:04:19;;;;;;;35.13;32.07;;;9.10;21.60;;;;;;4909391;29;20276;-82
2024/02/29 05:06:45;;;;;;;35.03;32.13;;;9.10;21.40;;;;;;4912611;29;20206;-81
2024/02/29 05:09:11;;;;;;;35.07;32.20;;;9.00;21.60;;;;;;4907594;29;20216;-81
2024/02/29 05:11:37;;;;;;;35.70;32.70;;;8.80;22.00;;;;;;4909252;29;20197;-81
2024/02/29 05:14:05;;;;;;;36.77;33.40;;;8.70;22.40;;;;;;4909773;29;20489;-81
2024/02/29 05:16:31;;;;;;;40.53;36.90;;;8.20;23.80;;;;;;4906648;29;20555;-81
2024/02/29 05:18:56;;;;;;;38.00;34.80;;;7.90;24.10;;;;;;4908865;29;20452;-82
2024/02/29 05:21:22;;;;;;;39.47;35.87;;;7.60;24.90;;;;;;4906580;29;21033;-81
2024/02/29 05:23:48;;;;;;;39.30;35.60;;;7.60;25.00;;;;;;4907196;29;20203;-81
2024/02/29 05:26:13;;;;;;;38.77;35.10;;;7.80;24.90;;;;;;4903173;29;20645;-81
2024/02/29 05:28:39;;;;;;;39.37;35.93;;;7.90;24.50;;;;;;4909764;29;20208;-82
2024/02/29 05:31:04;;;;;;;38.57;35.00;;;8.10;24.10;;;;;;4910576;29;20205;-82
2024/02/29 05:33:30;;;;;;;39.20;35.73;;;8.20;23.70;;;;;;4912725;29;20224;-81
2024/02/29 05:35:56;;;;;;;36.83;33.73;;;8.40;23.50;;;;;;4907531;29;20213;-81
2024/02/29 05:38:21;;;;;;;37.70;34.50;;;8.40;23.10;;;;;;4912297;29;20776;-80
2024/02/29 05:40:47;;;;;;;38.47;34.97;;;8.30;23.00;;;;;;4897207;29;20189;-80
2024/02/29 05:43:14;;;;;;;38.03;34.83;;;8.20;23.50;;;;;;4898003;29;20281;-80
2024/02/29 05:45:40;;;;;;;39.20;35.70;;;8.00;24.50;;;;;;4913114;29;20192;-80
2024/02/29 05:48:06;;;;;;;40.37;36.77;;;8.00;24.30;;;;;;4910394;29;20983;-80
2024/02/29 05:50:32;;;;;;;36.90;33.60;;;8.00;24.30;;;;;;4903639;29;20422;-80
2024/02/29 05:52:58;;;;;;;36.40;33.30;;;8.10;24.00;;;;;;4914565;29;20516;-82
2024/02/29 05:55:24;;;;;;;38.63;35.27;;;7.70;24.50;;;;;;4908073;29;20475;-81
2024/02/29 05:57:52;;;;;;;38.80;35.30;;;7.60;25.40;;;;;;4903109;29;20445;-82
2024/02/29 06:00:19;;;;;;;39.90;36.23;;;7.70;25.60;;;;;;4900037;29;20453;-84
2024/02/29 06:02:45;;;;;;;37.83;34.57;;;7.50;25.50;;;;;;4899718;29;20438;-79
2024/02/29 06:05:10;;;;;;;37.70;34.47;;;7.60;26.10;;;;;;4909866;29;21017;-82
2024/02/29 06:07:36;;;;;;;36.77;33.50;;;7.80;25.20;;;;;;4916550;29;20216;-82
2024/02/29 06:10:03;;;;;;;39.13;35.33;;;8.00;24.60;;;;;;4906176;29;20670;-82
2024/02/29 06:12:30;;;;;;;39.17;35.67;;;8.00;24.40;;;;;;4900164;29;20442;-81
2024/02/29 06:14:56;;;;;;;38.70;35.10;;;8.10;24.20;;;;;;4900883;29;20613;-82
2024/02/29 06:17:22;;;;;;;34.83;31.70;;;8.30;23.80;;;;;;4915156;29;20445;-82
2024/02/29 06:19:48;;;;;;;37.47;34.27;;;8.40;23.60;;;;;;4927877;29;20435;-82
2024/02/29 06:22:14;;;;;;;37.40;34.13;;;8.50;23.60;;;;;;4916198;29;20184;-82
2024/02/29 06:24:40;;;;;;;38.00;34.80;;;8.60;23.00;;;;;;4918040;29;20504;-82
2024/02/29 06:27:06;;;;;;;37.57;34.30;;;8.70;23.10;;;;;;4909331;29;20191;-83
2024/02/29 06:29:31;;;;;;;38.40;35.20;;;8.70;22.60;;;;;;4901597;29;20542;-81
2024/02/29 06:31:57;;;;;;;38.23;34.93;;;8.40;22.90;;;;;;4909777;29;20284;-82
2024/02/29 06:34:23;;;;;;;38.20;34.90;;;8.20;23.30;;;;;;4916456;29;20597;-82
2024/02/29 06:36:48;;;;;;;37.60;34.50;;;7.90;24.70;;;;;;4913805;29;20193;-82
2024/02/29 06:39:15;;;;;;;38.30;34.97;;;7.80;24.50;;;;;;4920264;29;20450;-81
2024/02/29 06:41:43;;;;;;;41.10;37.60;;;7.40;25.50;;;;;;4903064;29;20182;-82
2024/02/29 06:44:09;;;;;;;40.10;36.70;;;7.10;27.10;;;;;;4928223;29;20514;-81
2024/02/29 06:46:35;;;;;;;39.57;35.87;;;7.10;27.30;;;;;;4928788;29;20464;-81
2024/02/29 06:49:01;;;;;;;42.23;38.60;;;7.20;26.90;;;;;;4920481;29;20568;-83
2024/02/29 06:51:29;;;;;;;40.13;36.53;;;7.20;26.90;;;;;;4911502;29;20279;-81
2024/02/29 06:53:56;;;;;;;37.77;34.63;;;7.20;27.00;;;;;;4899302;29;20433;-80
2024/02/29 06:56:22;;;;;;;39.53;36.23;;;7.00;27.20;;;;;;4905925;29;20468;-81
2024/02/29 06:58:48;;;;;;;40.20;36.53;;;6.80;27.50;;;;;;4907084;29;20525;-80
2024/02/29 07:01:13;;;;;;;41.47;37.80;;;6.90;27.70;;;;;;4907093;29;20566;-81
2024/02/29 07:03:39;;;;;;;38.40;35.23;;;6.80;27.80;;;;;;4913690;29;20185;-81
2024/02/29 07:06:05;;;;;;;40.00;36.37;;;6.80;28.10;;;;;;4909060;29;20661;-81
2024/02/29 07:08:34;;;;;;;40.20;36.47;;;6.70;28.40;;;;;;4912661;29;20457;-80
2024/02/29 07:11:00;;;;;;;39.73;36.23;;;6.70;28.70;;;;;;4909184;29;20184;-81
2024/02/29 07:13:26;;;;;;;40.50;36.90;;;6.70;28.20;;;;;;4908965;29;20948;-81
2024/02/29 07:15:52;;;;;;;38.57;35.37;;;6.80;28.60;;;;;;4902496;29;20884;-81
2024/02/29 07:18:17;;;;;;;40.00;36.60;;;7.00;28.10;;;;;;4902744;29;20478;-81
2024/02/29 07:20:43;;;;;;;39.23;36.00;;;7.30;27.40;;;;;;4911490;29;20189;-81
2024/02/29 07:23:10;;;;;;;41.17;37.50;;;7.60;26.50;;;;;;4918462;29;20199;-80
2024/02/29 07:25:36;;;;;;;40.47;37.07;;;7.80;25.80;;;;;;4917249;29;20207;-81
2024/02/29 07:28:03;;;;;;;40.17;36.87;;;7.90;25.40;;;;;;4921434;29;20528;-81
2024/02/29 07:30:30;;;;;;;41.03;36.70;;;8.00;25.00;;;;;;4923876;29;20545;-80
2024/02/29 07:33:01;;;;;;;40.90;37.40;;;8.00;25.10;;;;;;4924195;29;20452;-81
2024/02/29 07:35:27;;;;;;;39.17;35.70;;;7.70;26.00;;;;;;4911294;29;20566;-80
2024/02/29 07:37:53;;;;;;;39.40;35.97;;;7.70;26.30;;;;;;4906596;29;20481;-80
2024/02/29 07:40:19;;;;;;;40.10;36.60;;;7.50;27.00;;;;;;4916881;29;20513;-81
2024/02/29 07:42:45;;;;;;;41.03;37.40;;;7.20;27.90;;;;;;4902496;29;20449;-81
2024/02/29 07:45:11;;;;;;;41.17;37.53;;;7.10;28.60;;;;;;4902081;29;20201;-81
2024/02/29 07:47:37;;;;;;;40.20;36.90;;;7.00;28.90;;;;;;4917216;29;20276;-82
2024/02/29 07:50:05;;;;;;;36.77;33.70;;;6.90;29.10;;;;;;4921392;29;20441;-82
2024/02/29 07:52:31;;;;;;;41.03;37.33;;;6.90;29.40;;;;;;4912493;29;20429;-82
2024/02/29 07:54:57;;;;;;;40.00;36.47;;;6.90;29.30;;;;;;4918931;29;20523;-81
2024/02/29 07:57:23;;;;;;;39.70;36.30;;;6.70;29.50;;;;;;4905473;29;20465;-82
2024/02/29 07:59:48;;;;;;;40.47;37.10;;;6.60;29.80;;;;;;4913235;29;20193;-82
2024/02/29 08:02:14;;;;;;;40.63;37.10;;;6.70;29.90;;;;;;4908562;29;20186;-82
2024/02/29 08:04:39;;;;;;;39.47;36.03;;;6.70;29.90;;;;;;4900462;29;20201;-82
2024/02/29 08:07:06;;;;;;;40.87;37.40;;;6.60;29.80;;;;;;4900405;29;20197;-82
2024/02/29 08:09:34;;;;;;;41.77;38.37;;;6.40;30.00;;;;;;4901160;29;20284;-81
2024/02/29 08:12:00;;;;;;;42.90;39.30;;;6.40;30.70;;;;;;4900836;29;20449;-82
2024/02/29 08:14:27;;;;;;;37.90;34.80;;;6.50;30.60;;;;;;4908446;29;20572;-82
2024/02/29 08:16:53;;;;;;;39.67;36.30;;;6.60;30.10;;;;;;4916596;29;20547;-82
2024/02/29 08:19:18;;;;;;;39.40;36.07;;;6.60;30.00;;;;;;4921541;29;20488;-82
2024/02/29 08:21:44;;;;;;;40.10;36.80;;;6.70;29.90;;;;;;4920522;29;20212;-81
2024/02/29 08:24:09;;;;;;;40.70;37.20;;;6.70;29.90;;;;;;4918888;29;20211;-80
2024/02/29 08:26:35;;;;;;;39.80;36.50;;;6.80;29.90;;;;;;4901307;29;20650;-81
2024/02/29 08:29:01;;;;;;;39.83;36.43;;;7.00;29.20;;;;;;4909334;29;20222;-82
2024/02/29 08:31:26;;;;;;;37.43;34.43;;;7.00;29.30;;;;;;4900713;29;20197;-81
2024/02/29 08:33:52;;;;;;;39.43;35.97;;;7.10;29.10;;;;;;4902335;29;20197;-81
2024/02/29 08:36:18;;;;;;;37.90;34.80;;;7.20;29.00;;;;;;4904125;29;20193;-82
2024/02/29 08:38:44;;;;;;;39.37;35.97;;;7.30;28.90;;;;;;4901573;29;20237;-82
2024/02/29 08:41:10;;;;;;;37.20;34.10;;;7.50;28.30;;;;;;4916121;29;20434;-81
2024/02/29 08:43:36;;;;;;;35.50;32.50;;;7.70;28.00;;;;;;4908472;29;20189;-82
2024/02/29 08:46:03;;;;;;;36.37;33.27;;;7.80;27.50;;;;;;4910165;29;20346;-82
2024/02/29 08:48:29;;;;;;;37.50;34.00;;;7.80;27.80;;;;;;4916061;29;20540;-83
2024/02/29 08:50:54;;;;;;;39.67;35.90;;;7.80;27.40;;;;;;4909784;29;20459;-82
2024/02/29 08:53:20;;;;;;;39.30;36.00;;;7.90;27.70;;;;;;4905648;29;20660;-83
2024/02/29 08:55:45;;;;;;;36.47;33.17;;;7.80;27.80;;;;;;4914375;29;20217;-82
2024/02/29 08:58:16;;;;;;;40.63;36.73;;;8.00;27.30;;;;;;4915272;29;20205;-82
2024/02/29 09:01:04;;;;;;;37.77;34.50;;;8.10;27.00;;;;;;4908688;29;20193;-85
2024/02/29 09:03:35;;;;;;;37.20;33.87;;;8.10;26.90;;;;;;4912060;29;20524;-85
2024/02/29 09:06:25;;;;;;;39.27;35.87;;;8.10;27.00;;;;;;4922385;29;20433;-85
2024/02/29 09:08:53;;;;;;;36.50;33.40;;;8.30;27.20;;;;;;4920568;23;21052;-79
2024/02/29 09:11:18;;;;;;;37.83;34.77;;;8.40;26.70;;;;;;4894683;29;20430;-79
2024/02/29 09:13:45;;;;;;;38.27;35.00;;;8.30;26.30;;;;;;4897750;29;20208;-79
2024/02/29 09:16:11;;;;;;;36.20;33.00;;;8.30;27.00;;;;;;4901719;29;20190;-80
2024/02/29 09:18:36;;;;;;;38.20;34.80;;;8.30;26.40;;;;;;4899908;29;20985;-80
2024/02/29 09:21:02;;;;;;;36.90;33.60;;;8.20;26.60;;;;;;4893051;29;20190;-80
2024/02/29 09:23:28;;;;;;;37.93;34.63;;;8.30;26.70;;;;;;4910403;29;20185;-80
2024/02/29 09:25:54;;;;;;;36.40;33.30;;;8.30;26.90;;;;;;4911583;29;20443;-80
2024/02/29 09:28:19;;;;;;;37.00;33.83;;;8.40;26.80;;;;;;4900169;29;20834;-80
2024/02/29 09:30:45;;;;;;;36.97;33.70;;;8.50;26.60;;;;;;4901457;29;20726;-79
2024/02/29 09:33:10;;;;;;;36.73;33.47;;;8.60;26.00;;;;;;4905759;29;20190;-78
2024/02/29 09:35:55;;;;;;;36.43;33.33;;;8.70;25.30;;;;;;4899856;29;20593;-80
2024/02/29 09:38:21;;;;;;;34.77;31.80;;;8.90;24.80;;;;;;4905765;29;20209;-80
2024/02/29 09:40:47;;;;;;;36.07;32.87;;;9.20;24.60;;;;;;4913573;29;20427;-81
2024/02/29 09:43:12;;;;;;;34.97;31.93;;;9.60;23.70;;;;;;4902318;29;20268;-79
2024/02/29 09:45:42;;;;;;;36.40;33.30;;;9.90;23.30;;;;;;4908859;29;20497;-80
2024/02/29 09:48:10;;;;;;;35.93;32.83;;;9.80;23.00;;;;;;4891251;29;20245;-79
2024/02/29 09:50:36;;;;;;;36.70;33.50;;;10.00;22.10;;;;;;4903007;29;20433;-78
2024/02/29 09:53:01;;;;;;;35.17;32.03;;;10.10;21.60;;;;;;4908382;29;20444;-78
2024/02/29 09:55:30;;;;;;;36.37;33.07;;;9.90;22.30;;;;;;4898636;29;20205;-80
2024/02/29 09:57:58;;;;;;;35.20;32.00;;;10.00;22.10;;;;;;4888588;29;20217;-79
2024/02/29 10:00:25;;;;;;;35.57;32.20;;;10.10;21.80;;;;;;4899342;29;20500;-80
2024/02/29 10:02:51;;;;;;;34.47;31.43;;;10.20;21.50;;;;;;4899949;29;20438;-79
2024/02/29 10:05:17;;;;;;;35.03;32.13;;;10.20;21.10;;;;;;4891637;29;20802;-80
2024/02/29 10:07:47;;;;;;;36.00;32.73;;;10.20;21.30;;;;;;4906908;29;20461;-79
2024/02/29 10:10:14;;;;;;;35.70;32.77;;;9.90;22.20;;;;;;4898832;29;20432;-80
2024/02/29 10:13:02;;;;;;;35.47;32.57;;;10.00;22.10;;;;;;4908185;29;20440;-80
2024/02/29 10:15:28;;;;;;;34.53;31.37;;;10.20;21.80;;;;;;4906328;29;20557;-80
2024/02/29 10:17:58;;;;;;;35.00;31.90;;;10.30;21.30;;;;;;4904516;29;20457;-79
2024/02/29 10:20:26;;;;;;;35.80;32.73;;;10.40;21.40;;;;;;4887175;29;20425;-80
2024/02/29 10:22:53;;;;;;;34.63;31.60;;;10.50;21.30;;;;;;4909380;29;20441;-79
2024/02/29 10:25:20;;;;;;;33.37;30.47;;;10.60;21.00;;;;;;4896649;29;20461;-80
2024/02/29 10:27:46;;;;;;;33.63;30.73;;;10.50;21.00;;;;;;4906733;29;20460;-79
2024/02/29 10:30:16;;;;;;;35.40;32.17;;;10.60;20.90;;;;;;4897471;29;20426;-79
2024/02/29 10:32:42;;;;;;;36.40;33.27;;;10.80;21.20;;;;;;4893259;29;20196;-79
2024/02/29 10:35:18;;;;;;;34.20;30.77;;;10.80;20.90;;;;;;4899027;29;20988;-80
2024/02/29 10:37:49;;;;;;;35.10;31.80;;;10.90;20.10;;;;;;4904365;29;20449;-81
2024/02/29 10:40:15;;;;;;;34.50;31.57;;;10.80;20.70;;;;;;4896023;29;21032;-80
2024/02/29 10:42:41;;;;;;;36.40;32.60;;;10.80;22.00;;;;;;4893043;29;20461;-80
2024/02/29 10:45:16;;;;;;;36.33;33.20;;;10.80;20.40;;;;;;4899938;29;20493;-78
2024/02/29 10:48:12;;;;;;;33.40;30.30;;;10.60;21.00;;;;;;4909530;29;20429;-80
2024/02/29 10:51:16;;;;;;;34.90;31.60;;;10.70;20.90;;;;;;4900102;29;20972;-80
2024/02/29 10:53:50;;;;;;;34.70;31.77;;;10.90;20.30;;;;;;4885909;29;20590;-79
2024/02/29 10:56:23;;;;;;;34.93;32.00;;;11.00;20.30;;;;;;4910904;29;20768;-79
2024/02/29 10:59:12;;;;;;;35.57;32.27;;;11.10;20.30;;;;;;4912817;29;20817;-78
2024/02/29 11:01:38;;;;;;;35.57;32.47;;;11.40;19.90;;;;;;4907699;29;20569;-79
2024/02/29 11:04:05;;;;;;;31.77;28.83;;;11.50;19.50;;;;;;4903728;29;20805;-80
2024/02/29 11:06:35;;;;;;;34.30;31.40;;;11.70;19.10;;;;;;4917664;29;20975;-78
2024/02/29 11:09:03;;;;;;;33.67;30.50;;;11.80;18.70;;;;;;4902720;29;20466;-79
2024/02/29 11:11:28;;;;;;;33.57;30.73;;;11.90;18.70;;;;;;4898072;29;20425;-79
2024/02/29 11:14:09;;;;;;;32.17;29.50;;;11.70;18.90;;;;;;4915163;29;21099;-83
2024/02/29 11:16:40;;;;;;;32.30;29.50;;;11.80;18.70;;;;;;4893467;29;20205;-79
2024/02/29 11:19:07;;;;;;;32.13;29.43;;;11.90;18.60;;;;;;4916069;29;20450;-81
2024/02/29 11:21:33;;;;;;;32.40;29.67;;;11.90;18.40;;;;;;4898942;29;20490;-79
2024/02/29 11:24:07;;;;;;;33.90;31.10;;;11.80;18.60;;;;;;4911736;29;20421;-81
2024/02/29 11:26:34;;;;;;;32.50;29.87;;;11.90;18.10;;;;;;4896461;29;20517;-79
2024/02/29 11:29:20;;;;;;;31.70;29.00;;;12.00;18.10;;;;;;4911382;29;20448;-78
2024/02/29 11:31:50;;;;;;;31.40;28.73;;;11.80;18.60;;;;;;4894640;29;20472;-79
2024/02/29 11:34:17;;;;;;;32.23;29.50;;;11.80;19.20;;;;;;4905352;29;20472;-79
2024/02/29 11:36:45;;;;;;;32.63;29.83;;;11.70;18.90;;;;;;4901535;29;20485;-79
2024/02/29 11:39:11;;;;;;;30.30;27.77;;;11.80;19.10;;;;;;4909798;29;21044;-79
2024/02/29 11:41:37;;;;;;;31.07;28.50;;;11.80;18.80;;;;;;4907311;29;20429;-78
2024/02/29 11:44:02;;;;;;;31.27;28.57;;;11.80;18.80;;;;;;4907521;29;20189;-79
2024/02/29 11:46:28;;;;;;;31.17;28.43;;;12.00;18.70;;;;;;4902550;29;20549;-78
2024/02/29 11:48:53;;;;;;;33.33;30.53;;;12.10;18.50;;;;;;4909735;29;20206;-79
2024/02/29 11:51:19;;;;;;;31.70;28.93;;;12.20;18.00;;;;;;4896349;29;20181;-80
2024/02/29 11:53:45;;;;;;;30.73;28.23;;;12.20;17.80;;;;;;4900150;29;20193;-80
2024/02/29 11:56:11;;;;;;;30.13;27.63;;;12.10;18.00;;;;;;4902772;29;20605;-80
2024/02/29 11:58:36;;;;;;;28.27;25.90;;;12.10;18.30;;;;;;4908119;29;20205;-79
2024/02/29 12:01:03;;;;;;;28.63;26.30;;;12.10;17.30;;;;;;4898451;29;20228;-78
2024/02/29 12:03:29;;;;;;;28.63;26.23;;;12.20;17.10;;;;;;4911414;29;20192;-80
2024/02/29 12:05:59;;;;;;;26.87;24.57;;;12.20;17.20;;;;;;4912276;29;20532;-79
2024/02/29 12:08:27;;;;;;;28.97;26.53;;;12.20;17.30;;;;;;4910109;29;20972;-80
2024/02/29 12:10:56;;;;;;;27.00;24.57;;;12.20;16.70;;;;;;4909456;29;20510;-80
2024/02/29 12:13:22;;;;;;;26.50;24.40;;;12.30;16.50;;;;;;4897326;29;20458;-81
2024/02/29 12:15:48;;;;;;;26.57;24.40;;;12.40;16.50;;;;;;4901102;29;20472;-80
2024/02/29 12:18:15;;;;;;;25.80;23.70;;;12.40;16.60;;;;;;4909375;29;20209;-80
2024/02/29 12:20:41;;;;;;;25.83;23.73;;;12.30;16.50;;;;;;4905394;29;20442;-81
2024/02/29 12:23:09;;;;;;;25.10;23.20;;;12.20;16.40;;;;;;4905505;29;20928;-78
2024/02/29 12:25:34;;;;;;;27.37;25.07;;;12.20;16.40;;;;;;4907715;29;20533;-80
2024/02/29 12:28:00;;;;;;;24.77;22.77;;;12.30;16.80;;;;;;4908933;29;20485;-80
2024/02/29 12:30:25;;;;;;;26.80;24.63;;;12.40;16.50;;;;;;4909106;29;20194;-80
2024/02/29 12:32:52;;;;;;;27.13;25.07;;;12.40;16.50;;;;;;4910113;29;20620;-81